Warning: Javascript must be enabled to use all the features on this page!


Page Loading - Please Wait...

Click to hideNews Bulletins

Peak Streamflow for the Nation

USGS 11120000 ATASCADERO C NR GOLETA CA

Santa Barbara County, California
Hydrologic Unit Code 18060013
Latitude  34°25'29", Longitude 119°48'39" NAD27
Drainage area 18.9  square miles
Gage datum 12.59 feet above NGVD29
Output formats
Table
Graph
Tab-separated file
peakfq (watstore) format
Reselect output format
Water
Year
Date Gage
Height
(feet)
Stream-
flow
(cfs)
1942 1942-04-14 4.92 118
1943 1943-01-22 10.60 1,900
1944 1944-02-22 9.00 1,050
1945 1945-02-02 9.00 1,050
1946 1945-12-22 5.98 265
1947 1946-11-20 8.60 920
1948 1948-03-24 5.72 60.0
1949 1949-03-04 6.41 84.0
1950 1950-02-06 7.23 180
1951 1951-03-01 4.54 2.10
1952 1952-01-15 10.85 4,500
1953 1952-12-30 6.332 232
1954 1954-01-24 6.47 235
1955 1955-01-18 6.34 102
1956 1956-01-26 8.36 1,090
1957 1957-01-13 6.89 408
1958 1958-04-03 11.30 1,600
1959 1959-02-16 6.58 182
1960 1960-02-01 6.67 128
1961 1960-11-05 8.03 331
1962 1962-02-09 12.00 1,950
1963 1963-02-09 8.78 732
1964 1964-03-22 8.50 529
1965 1964-11-09 11.61 1,530
1966 1965-11-16 13.12 4,020
1967 1967-01-24 12.80 5,000
1968 1968-03-07 9.326 460
1969 1969-01-25 13.00 5,230
1970 1970-03-04 9.39 956
1971 1970-11-29 11.30 2,500C
1972 1971-12-27 10.47 2,470C
1973 1973-01-18 13.10 5,380C
1974 1974-01-07 8.95 1,140C
1975 1974-12-03 13.30 2,380C
1976 1976-02-09 3.566 1,380C
1977 1977-01-02 6.086 960C
1978 1978-01-16 8.476 4,310C
1979 1979-03-27 4.98 1,260C
1980 1980-02-16 10.27 4,600C
1981 1981-03-01 5.87 1,010C
1982 1982-04-01 4.39 457C
1983 1983-01-27 9.13 3,390C
1984 1983-12-25 6.70 1,470C
1985 1984-12-19 5.02 828C
1986 1986-02-14 5.32 979C
1987 1987-03-05 3.32 189C
1988 1987-12-04 4.16 457C
1989 1988-12-17 5.14 888C
1990 1990-02-17 5.54 1,090C
1991 1991-03-18 8.33 2,360C
1992 1992-02-12 11.11 5,380C
1993 1993-03-25 8.65 2,990C
1994 1994-02-20 6.31 1,090C
1995 1995-03-10 12.45 10,200C
1996 1996-02-20 3.62 528C
1997 1996-12-10 3.43 438C
1998 1998-02-07 6.83 3,450C
1999 1999-03-25 3.12 311C
2000 2000-02-23 4.67 1,720C
2001 2001-03-04 9.38 9,820C
2002 2001-11-24 3.63 799C
2003 2002-12-16 5.37 3,580C
2004 2004-02-25 6.34 5,110C
2005 2004-12-31 8.56 8,580C
2006 2006-04-04 4.18 1,560C
2007 2007-01-27 2.90 239C
2008 2008-01-27 6.45 5,290C
2009 2008-12-15 3.24 448C
2010 2010-01-21 4.39 1,950C
2011 2011-03-20 5.39 3,610C
2012 2012-01-21 3.25 455C
2013 2013-03-08 2.92 244C
2014 2014-02-28 3.34 525C
2015 2014-12-12 5.00 3,000C
2016 2016-01-06 4.92 2,850C
2017 2017-02-17 9.18 4,0602,C
2018 2018-01-09 3.31 501C
2019 2019-02-02 6.43 5,270C
2020 2020-04-06 4.65 2,380C
2021 2021-01-28 4.26 1,880C
?
  Peak Gage-Height Qualification Codes.
?
  Peak Streamflow Qualification Codes.